Flight Track Log - Related Links

Times and Time Zones

All times are in EDT time to prevent confusion due to time zone crossing. See the CTL62 flight status page for this flight to view local times or setup timezone preferences in your user account.

Time Position Orientation Groundspeed Altitude Reporting Facility
EDT Latitude Longitude Course Direction KTS MPH feet Rate Location/Type
Thu 10:10:58 PM 40.0783 -83.0578 20° North 131 151 1,100  Level Indianapolis Center
Thu 10:12:03 PM 40.1089 -83.0433 20° North 193 222 2,300 1,095 Climbing Indianapolis Center
Thu 10:13:04 PM 40.1261 -83.0881 297° West 136 157 3,400 969 Climbing Indianapolis Center
Thu 10:14:13 PM 40.1497 -83.1453 298° West 151 174 4,400 829 Climbing Indianapolis Center
Thu 10:15:07 PM 40.1675 -83.1819 302° West 148 170 5,100 730 Climbing Indianapolis Center
Thu 10:16:08 PM 40.1892 -83.2317 300° West 154 177 5,800 439 Climbing Indianapolis Center
Thu 10:17:10 PM 40.2131 -83.2836 301° West 162 186 6,000 146 Climbing Indianapolis Center
Thu 10:18:11 PM 40.2392 -83.3425 300° West 180 207 6,100  Climbing Indianapolis Center
Thu 10:19:12 PM 40.2644 -83.4031 299° West 187 215 6,000  Descending Indianapolis Center
Thu 10:20:13 PM 40.2911 -83.4617 301° West 187 215 6,100  Climbing Indianapolis Center
Thu 10:21:15 PM 40.3203 -83.5200 303° West 189 217 6,000 -49 Descending Indianapolis Center
Thu 10:22:16 PM 40.3456 -83.5797 299° West 187 215 6,000 49 Level Indianapolis Center
Thu 10:23:17 PM 40.3764 -83.6472 301° West 185 213 6,100  Climbing Indianapolis Center
Thu 10:24:18 PM 40.4031 -83.7069 300° West 187 215 6,000 -49 Descending Indianapolis Center
Thu 10:25:20 PM 40.4319 -83.7644 303° West 187 215 6,000  Level Indianapolis Center
Thu 10:26:21 PM 40.4578 -83.8239 300° West 186 214 6,000 49 Level Indianapolis Center
Thu 10:27:22 PM 40.4850 -83.8828 301° West 186 214 6,100  Climbing Indianapolis Center
Thu 10:28:24 PM 40.5108 -83.9439 299° West 188 216 6,000  Descending Indianapolis Center
Thu 10:29:25 PM 40.5378 -84.0053 300° West 191 220 6,100 49 Climbing Indianapolis Center
Thu 10:30:26 PM 40.5664 -84.0639 303° West 190 219 6,100  Level Indianapolis Center
Thu 10:31:27 PM 40.5919 -84.1242 299° West 189 217 6,100  Level Indianapolis Center
Thu 10:32:29 PM 40.6192 -84.1836 301° West 189 217 6,100 -49 Level Indianapolis Center
Thu 10:33:30 PM 40.6483 -84.2414 304° West 188 216 6,000  Descending Indianapolis Center
Thu 10:34:31 PM 40.6756 -84.2992 302° West 186 214 6,100 49 Climbing Indianapolis Center
Thu 10:35:33 PM 40.7019 -84.3581 301° West 185 213 6,100  Level Indianapolis Center
Thu 10:35:52 PM 40.7142 -84.3822 304° West 185 213 6,100 -74 Level Chicago Center
Thu 10:36:54 PM 40.7389 -84.4433 298° West 186 214 6,000  Descending Chicago Center
Thu 10:37:56 PM 40.7639 -84.5033 299° West 187 215 6,100 49 Climbing Chicago Center
Thu 10:38:57 PM 40.7886 -84.5625 299° West 186 214 6,100 -49 Level Chicago Center
Thu 10:39:58 PM 40.8139 -84.6217 299° West 185 213 6,000 -49 Descending Chicago Center
Thu 10:41:00 PM 40.8394 -84.6800 300° West 185 213 6,000 49 Level Chicago Center
Thu 10:42:01 PM 40.8647 -84.7389 300° West 185 213 6,100  Climbing Chicago Center
Thu 10:43:03 PM 40.8894 -84.7975 299° West 184 212 6,000  Descending Chicago Center
Thu 10:44:05 PM 40.9194 -84.8669 300° West 183 211 6,100  Climbing Chicago Center
Thu 10:45:06 PM 40.9439 -84.9264 299° West 183 211 6,000 -49 Descending Chicago Center
Thu 10:46:08 PM 40.9686 -84.9856 299° West 184 212 6,000  Level Chicago Center
Thu 10:47:09 PM 40.9931 -85.0456 298° West 184 212 6,000  Level Chicago Center
Thu 10:48:11 PM 41.0200 -85.1036 302° West 185 213 6,000 49 Level Chicago Center
Thu 10:49:12 PM 41.0447 -85.1644 298° West 186 214 6,100  Climbing Chicago Center
Thu 10:50:14 PM 41.0694 -85.2247 299° West 186 214 6,000  Descending Chicago Center
Thu 10:51:15 PM 41.0953 -85.2861 299° West 188 216 6,100 49 Climbing Chicago Center
Thu 10:52:17 PM 41.1256 -85.3600 299° West 190 219 6,100  Level Chicago Center
Thu 10:53:18 PM 41.1503 -85.4206 298° West 188 216 6,100 -49 Level Chicago Center
Thu 10:54:20 PM 41.1753 -85.4806 299° West 187 215 6,000 -49 Descending Chicago Center
Thu 10:55:21 PM 41.1994 -85.5408 298° West 186 214 6,000  Level Chicago Center
Thu 10:56:22 PM 41.2231 -85.6008 298° West 185 213 6,000  Level Chicago Center
Thu 10:57:24 PM 41.2486 -85.6600 300° West 184 212 6,000 49 Level Chicago Center
Thu 10:58:25 PM 41.2736 -85.7206 299° West 185 213 6,100 49 Climbing Chicago Center
Thu 10:59:26 PM 41.2994 -85.7806 300° West 186 214 6,100  Level Chicago Center
Thu 11:00:28 PM 41.3239 -85.8408 298° West 186 214 6,100  Level Chicago Center
Thu 11:01:29 PM 41.3472 -85.8997 298° West 183 211 6,100  Level Chicago Center
Thu 11:02:30 PM 41.3714 -85.9583 299° West 182 209 6,100  Level Chicago Center
Thu 11:03:31 PM 41.3997 -86.0286 298° West 180 207 6,100  Level Chicago Center
Thu 11:04:33 PM 41.4236 -86.0864 299° West 179 206 6,100 -49 Level Chicago Center
Thu 11:05:34 PM 41.4475 -86.1450 299° West 180 207 6,000  Descending Chicago Center
Thu 11:06:35 PM 41.4725 -86.2036 300° West 181 208 6,100 49 Climbing Chicago Center
Thu 11:07:36 PM 41.4964 -86.2633 298° West 182 209 6,100 -49 Level Chicago Center
Thu 11:08:37 PM 41.5203 -86.3233 298° West 182 209 6,000 -49 Descending Chicago Center
Thu 11:09:38 PM 41.5442 -86.3842 298° West 185 213 6,000  Level Chicago Center
Thu 11:10:39 PM 41.5689 -86.4433 299° West 184 212 6,000  Level Chicago Center
Thu 11:11:40 PM 41.5931 -86.5053 298° West 189 217 6,000 -197 Level Chicago Center
Thu 11:12:41 PM 41.6167 -86.5683 297° West 190 219 5,600 -443 Descending Chicago Center
Thu 11:13:42 PM 41.6436 -86.6353 298° West 200 230 5,100 -541 Descending Chicago Center
Thu 11:14:43 PM 41.6714 -86.7058 298° West 205 236 4,500 -537 Descending Chicago Center
Thu 11:15:45 PM 41.6983 -86.7733 298° West 206 237 4,000 -246 Descending Chicago Center
Thu 11:16:45 PM 41.7261 -86.8508 296° West 196 226 4,000 50 Level Chicago Center
Thu 11:17:46 PM 41.7494 -86.9119 297° West 189 217 4,100 49 Climbing Chicago Center
Thu 11:18:47 PM 41.7736 -86.9750 297° West 190 219 4,100  Level Chicago Center
Thu 11:19:48 PM 41.7981 -87.0364 298° West 190 219 4,100 -148 Level Chicago Center
Thu 11:20:49 PM 41.8203 -87.1006 295° West 190 219 3,800 -295 Descending Chicago Center
Thu 11:21:50 PM 41.8447 -87.1664 297° West 193 222 3,500 -344 Descending Chicago Center
Thu 11:22:51 PM 41.8708 -87.2328 298° West 197 227 3,100 -197 Descending Chicago Center
Thu 11:23:52 PM 41.8975 -87.2989 298° West 200 230 3,100  Level Chicago Center
Thu 11:24:53 PM 41.9275 -87.3583 304° West 199 229 3,100  Level Chicago Center
Thu 11:25:50 PM 41.9667 -87.4167 312° West 196 226 3,100  Level Chicago TRACON
Thu 11:26:50 PM 42.0000 -87.4667 312° West 192 221 3,100  Level Chicago TRACON
Thu 11:27:50 PM 42.0333 -87.5333 304° West 190 219 3,100 -300 Level Chicago TRACON
Thu 11:28:50 PM 42.0667 -87.5833 312° West 196 226 2,500 -550 Descending Chicago TRACON
Thu 11:29:50 PM 42.0833 -87.6500 289° West 195 224 2,000 -400 Descending Chicago TRACON
Thu 11:30:50 PM 42.1000 -87.7167 289° West 160 184 1,700 -250 Descending Chicago TRACON
Thu 11:31:50 PM 42.1000 -87.7667 270° West 158 182 1,500 -198 Descending Chicago TRACON
Thu 11:32:51 PM 42.1167 -87.8333 289° West 161 185 1,300 -197 Descending Chicago TRACON
Thu 11:34:00 PM 42.1000 -87.9000 289° West  Level FlightAware Approximate
Thu 11:41:00 PM 42.1143 -87.9015 289° West  Level Estimated

Login

Don't have an account? Register now (free) for customized features, flight alerts, and more!